Time;durP1;ratioP1;P1;durP2;ratioP2;P2;SDS_P1;SDS_P2;PMS_P1;PMS_P2;Temp;Humidity;BMP_temperature;BMP_pressure;BME280_temperature;BME280_humidity;BME280_pressure;Samples;Min_cycle;Max_cycle;Signal;HPM_P1;HPM_P2
2023/03/18 00:00:41;;;;;;;20.27;12.07;;;;;;;2.67;57.43;95362.31;5103192;28;20027;-72
2023/03/18 00:03:07;;;;;;;21.13;12.93;;;;;;;2.72;57.21;95360.41;5102876;28;20082;-73
2023/03/18 00:05:33;;;;;;;21.95;12.73;;;;;;;2.65;57.31;95361.13;5104141;28;20114;-72
2023/03/18 00:07:59;;;;;;;25.23;14.23;;;;;;;2.66;57.36;95359.97;5103003;28;20102;-72
2023/03/18 00:10:25;;;;;;;30.25;16.15;;;;;;;2.64;57.21;95357.63;5103760;28;20100;-72
2023/03/18 00:12:53;;;;;;;43.25;22.63;;;;;;;2.64;57.72;95363.06;5104362;28;20069;-71
2023/03/18 00:15:19;;;;;;;46.03;23.38;;;;;;;2.58;57.96;95359.13;5102316;28;20023;-72
2023/03/18 00:17:45;;;;;;;42.90;23.63;;;;;;;2.48;58.44;95359.03;5102721;28;20042;-72
2023/03/18 00:20:12;;;;;;;40.47;21.60;;;;;;;2.45;58.24;95351.63;5104026;28;20036;-73
2023/03/18 00:22:38;;;;;;;34.53;19.90;;;;;;;2.41;58.11;95340.78;5103928;28;20031;-72
2023/03/18 00:25:06;;;;;;;36.60;19.60;;;;;;;2.41;57.94;95340.78;5102757;28;20491;-72
2023/03/18 00:27:32;;;;;;;31.73;18.77;;;;;;;2.37;57.98;95343.44;5102091;28;20039;-72
2023/03/18 00:29:58;;;;;;;34.53;17.40;;;;;;;2.33;57.75;95339.91;5104062;28;20027;-71
2023/03/18 00:32:27;;;;;;;36.72;17.73;;;;;;;2.33;58.28;95336.41;5102805;28;20046;-71
2023/03/18 00:34:54;;;;;;;34.70;18.15;;;;;;;2.26;58.36;95330.94;5106484;28;20454;-72
2023/03/18 00:37:29;;;;;;;30.88;18.23;;;;;;;2.21;58.55;95332.03;5106035;28;20031;-73
2023/03/18 00:40:06;;;;;;;31.77;18.35;;;;;;;2.19;58.48;95328.94;5106207;28;20031;-71
2023/03/18 00:42:37;;;;;;;30.40;16.20;;;;;;;2.21;58.52;95325.84;5106083;28;20062;-72
2023/03/18 00:45:05;;;;;;;32.90;16.45;;;;;;;2.20;58.46;95316.94;5106951;28;20035;-72
2023/03/18 00:47:30;;;;;;;32.90;17.75;;;;;;;2.19;58.30;95323.50;5109810;28;20043;-71
2023/03/18 00:49:56;;;;;;;33.85;17.92;;;;;;;2.21;58.45;95312.28;5108546;28;20080;-72
2023/03/18 00:52:21;;;;;;;29.02;15.38;;;;;;;2.18;57.99;95311.09;5108108;28;20031;-72
2023/03/18 00:54:47;;;;;;;31.25;16.67;;;;;;;2.19;58.23;95311.88;5107367;28;20028;-72
2023/03/18 00:57:13;;;;;;;29.05;16.70;;;;;;;2.21;58.14;95304.13;5105398;28;20032;-72
2023/03/18 00:59:39;;;;;;;27.60;17.13;;;;;;;2.20;58.27;95300.66;5105848;28;20027;-72
2023/03/18 01:02:04;;;;;;;30.10;16.95;;;;;;;2.23;58.17;95305.31;5105885;28;20109;-72
2023/03/18 01:04:30;;;;;;;23.52;14.48;;;;;;;2.21;58.20;95302.19;5107277;28;20030;-73
2023/03/18 01:06:56;;;;;;;24.73;13.80;;;;;;;2.22;57.97;95294.84;5106886;28;20032;-72
2023/03/18 01:09:22;;;;;;;27.77;14.25;;;;;;;2.21;58.10;95291.34;5107048;28;20138;-72
2023/03/18 01:11:47;;;;;;;20.90;12.70;;;;;;;2.24;57.84;95300.69;5107009;28;20114;-72
2023/03/18 01:14:13;;;;;;;28.05;13.70;;;;;;;2.21;58.08;95287.88;5105577;28;20997;-73
2023/03/18 01:16:38;;;;;;;25.17;13.43;;;;;;;2.17;58.12;95293.25;5106814;28;20039;-71
2023/03/18 01:19:04;;;;;;;23.08;13.77;;;;;;;2.17;58.21;95289.75;5106592;27;20516;-73
2023/03/18 01:21:29;;;;;;;19.67;12.38;;;;;;;2.10;58.32;95288.53;5106714;28;20028;-72
2023/03/18 01:23:54;;;;;;;26.50;13.18;;;;;;;2.15;58.40;95298.28;5105031;28;20458;-73
2023/03/18 01:26:20;;;;;;;23.88;13.02;;;;;;;2.11;58.30;95283.91;5107076;27;20032;-73
2023/03/18 01:28:46;;;;;;;20.23;11.95;;;;;;;2.11;58.20;95286.59;5105025;28;20027;-71
2023/03/18 01:31:12;;;;;;;22.77;12.27;;;;;;;2.09;58.25;95297.06;5105424;28;20340;-71
2023/03/18 01:33:39;;;;;;;19.98;13.05;;;;;;;2.10;58.32;95293.97;5106339;28;20509;-71
2023/03/18 01:36:04;;;;;;;21.17;12.93;;;;;;;2.06;58.31;95287.72;5106797;28;20111;-72
2023/03/18 01:38:30;;;;;;;22.52;13.55;;;;;;;2.08;58.32;95295.50;5106241;28;20110;-72
2023/03/18 01:40:57;;;;;;;24.83;13.95;;;;;;;2.04;58.36;95290.03;5104961;28;20110;-73
2023/03/18 01:43:30;;;;;;;21.50;13.60;;;;;;;2.05;58.34;95293.53;5087770;28;20156;-72
2023/03/18 01:45:57;;;;;;;24.20;12.57;;;;;;;2.02;58.57;95291.56;5104543;28;20031;-73
2023/03/18 01:48:26;;;;;;;22.92;12.95;;;;;;;2.02;58.40;95289.63;5107187;28;20019;-72
2023/03/18 01:50:58;;;;;;;29.80;15.07;;;;;;;1.99;58.44;95295.78;5105037;28;20015;-73
2023/03/18 01:53:25;;;;;;;25.27;14.38;;;;;;;2.01;58.52;95284.59;5105998;28;20103;-72
2023/03/18 01:55:51;;;;;;;31.00;15.63;;;;;;;1.97;59.07;95281.84;5104388;28;20019;-72
2023/03/18 01:58:35;;;;;;;25.23;15.13;;;;;;;1.92;59.29;95278.69;5104546;28;20038;-73
2023/03/18 02:01:05;;;;;;;28.30;16.45;;;;;;;1.90;59.50;95279.06;5106602;28;20019;-74
2023/03/18 02:03:33;;;;;;;30.10;15.90;;;;;;;1.90;59.76;95283.72;5104078;28;20027;-72
2023/03/18 02:05:58;;;;;;;31.33;16.60;;;;;;;1.88;59.84;95275.16;5106103;28;20030;-71
2023/03/18 02:08:24;;;;;;;31.05;17.95;;;;;;;1.88;60.07;95275.16;5106074;28;20023;-73
2023/03/18 02:10:50;;;;;;;31.52;16.85;;;;;;;1.84;59.99;95275.91;5104206;28;20028;-71
2023/03/18 02:13:17;;;;;;;26.85;16.08;;;;;;;1.82;60.14;95269.28;5104580;28;20059;-71
2023/03/18 02:15:51;;;;;;;24.45;14.38;;;;;;;1.84;60.16;95273.19;5104100;28;20371;-71
2023/03/18 02:18:20;;;;;;;25.75;14.70;;;;;;;1.83;60.50;95262.72;5104636;28;20110;-71
2023/03/18 02:21:07;;;;;;;25.05;14.93;;;;;;;1.80;60.36;95275.09;5086603;28;20031;-72
2023/03/18 02:24:00;;;;;;;26.98;13.65;;;;;;;1.80;60.46;95269.66;5105400;28;20034;-72
2023/03/18 02:26:46;;;;;;;25.20;14.27;;;;;;;1.79;60.28;95270.81;5105571;28;20122;-71
2023/03/18 02:29:13;;;;;;;24.30;13.95;;;;;;;1.78;60.05;95265.78;5105288;28;20055;-71
2023/03/18 02:31:40;;;;;;;25.02;14.45;;;;;;;1.75;59.90;95267.28;5104056;28;20127;-71
2023/03/18 02:34:06;;;;;;;26.35;14.23;;;;;;;1.78;59.87;95271.97;5105270;28;20112;-72
2023/03/18 02:36:32;;;;;;;24.17;13.70;;;;;;;1.77;59.71;95264.97;5103835;28;20028;-72
2023/03/18 02:38:59;;;;;;;21.58;14.05;;;;;;;1.78;59.67;95268.50;5105136;28;20043;-72
2023/03/18 02:41:27;;;;;;;24.85;14.50;;;;;;;1.77;59.61;95270.41;5103775;28;20099;-73
2023/03/18 02:43:52;;;;;;;28.58;14.60;;;;;;;1.77;59.71;95267.69;5103581;28;20040;-71
2023/03/18 02:46:28;;;;;;;25.52;14.55;;;;;;;1.76;59.72;95273.47;5103074;28;20038;-72
2023/03/18 02:48:54;;;;;;;25.23;14.25;;;;;;;1.74;59.75;95264.97;5103693;28;20486;-72
2023/03/18 02:51:25;;;;;;;24.77;15.93;;;;;;;1.72;59.44;95261.81;5103760;28;20028;-72
2023/03/18 02:54:00;;;;;;;25.02;15.10;;;;;;;1.67;59.51;95259.47;5103346;28;20074;-72
2023/03/18 02:56:26;;;;;;;26.58;14.90;;;;;;;1.70;59.27;95266.84;5086157;28;20502;-73
2023/03/18 02:58:51;;;;;;;25.75;14.27;;;;;;;1.65;59.64;95265.25;5104438;28;20138;-73
2023/03/18 03:01:18;;;;;;;26.92;15.20;;;;;;;1.60;59.69;95265.56;5103889;28;20039;-72
2023/03/18 03:03:43;;;;;;;22.25;14.57;;;;;;;1.59;59.99;95261.31;5102944;28;20119;-72
2023/03/18 03:06:09;;;;;;;28.45;15.68;;;;;;;1.56;60.39;95259.34;5105047;28;20498;-71
2023/03/18 03:08:35;;;;;;;26.50;14.60;;;;;;;1.46;60.61;95262.72;5104801;28;20028;-72
2023/03/18 03:11:01;;;;;;;32.10;15.90;;;;;;;1.42;60.68;95261.88;5104814;28;20169;-72
2023/03/18 03:13:26;;;;;;;24.30;15.50;;;;;;;1.39;60.65;95257.22;5103238;28;20091;-72
2023/03/18 03:15:52;;;;;;;28.48;15.27;;;;;;;1.40;60.65;95264.97;5103174;28;20486;-72
2023/03/18 03:18:19;;;;;;;27.25;14.20;;;;;;;1.41;60.59;95263.81;5103297;28;20110;-71
2023/03/18 03:20:45;;;;;;;25.60;13.38;;;;;;;1.42;60.41;95268.09;5103978;28;20047;-72
2023/03/18 03:23:13;;;;;;;23.67;13.63;;;;;;;1.40;60.12;95267.69;5108309;27;20492;-72
2023/03/18 03:25:38;;;;;;;24.38;14.40;;;;;;;1.38;59.97;95266.47;5103909;28;20023;-72
2023/03/18 03:28:05;;;;;;;24.67;13.80;;;;;;;1.36;59.78;95274.19;5103290;28;20146;-72
2023/03/18 03:30:31;;;;;;;23.00;13.90;;;;;;;1.37;59.73;95283.88;5103527;28;20511;-72
2023/03/18 03:32:57;;;;;;;27.83;14.88;;;;;;;1.35;59.42;95275.34;5104241;28;20144;-73
2023/03/18 03:35:23;;;;;;;32.25;16.25;;;;;;;1.35;59.45;95269.94;5104579;28;20031;-71
2023/03/18 03:37:49;;;;;;;28.25;17.00;;;;;;;1.32;59.38;95276.88;5102631;28;20899;-72
2023/03/18 03:40:16;;;;;;;24.88;14.20;;;;;;;1.30;59.39;95282.66;5104714;28;20016;-72
2023/03/18 03:42:43;;;;;;;24.20;15.77;;;;;;;1.31;59.38;95281.50;5102582;28;20119;-72
2023/03/18 03:45:10;;;;;;;28.92;16.38;;;;;;;1.30;59.11;95279.94;5102926;28;20517;-72
2023/03/18 03:47:35;;;;;;;29.02;15.55;;;;;;;1.33;59.24;95292.75;5085929;28;20486;-72
2023/03/18 03:50:01;;;;;;;25.75;14.65;;;;;;;1.28;59.43;95284.97;5104048;28;20030;-72
2023/03/18 03:52:27;;;;;;;28.30;15.82;;;;;;;1.23;59.46;95289.91;5085874;28;20039;-72
2023/03/18 03:54:55;;;;;;;28.50;15.73;;;;;;;1.19;59.48;95289.88;5103936;28;20112;-72
2023/03/18 03:57:22;;;;;;;25.90;15.45;;;;;;;1.19;59.33;95289.09;5103107;28;20027;-72
2023/03/18 03:59:51;;;;;;;28.70;15.20;;;;;;;1.15;59.34;95288.25;5102662;28;20035;-72
2023/03/18 04:02:17;;;;;;;33.85;13.93;;;;;;;1.15;59.34;95290.97;5103047;28;20142;-72
2023/03/18 04:04:44;;;;;;;28.23;15.43;;;;;;;1.16;59.18;95296.03;5104095;28;20035;-72
2023/03/18 04:07:10;;;;;;;30.52;15.82;;;;;;;1.14;59.26;95292.13;5085819;28;20019;-72
2023/03/18 04:09:36;;;;;;;28.52;17.08;;;;;;;1.12;59.27;95286.28;5108257;28;20024;-72
2023/03/18 04:12:02;;;;;;;30.05;15.88;;;;;;;1.14;59.73;95286.69;5106551;28;20064;-72
2023/03/18 04:14:28;;;;;;;28.55;16.30;;;;;;;1.08;59.87;95293.59;5109767;28;20043;-75
2023/03/18 04:16:56;;;;;;;33.35;16.77;;;;;;;1.01;59.71;95292.34;5090670;28;20032;-73
2023/03/18 04:19:23;;;;;;;30.65;16.02;;;;;;;1.01;59.78;95296.97;5107157;28;20028;-72
2023/03/18 04:21:48;;;;;;;27.30;15.75;;;;;;;1.00;59.78;95300.84;5107989;28;20115;-72
2023/03/18 04:24:14;;;;;;;26.27;15.95;;;;;;;1.00;60.11;95307.03;5106492;28;20161;-72
2023/03/18 04:26:39;;;;;;;24.92;15.27;;;;;;;1.04;59.95;95313.28;5106633;28;20120;-72
2023/03/18 04:29:05;;;;;;;28.30;15.60;;;;;;;1.01;59.95;95316.72;5107455;28;20378;-72
2023/03/18 04:31:31;;;;;;;26.05;15.90;;;;;;;0.96;60.12;95313.53;5107972;28;20108;-74
2023/03/18 04:33:58;;;;;;;28.08;15.80;;;;;;;0.98;59.84;95319.38;5106128;28;20051;-73
2023/03/18 04:36:24;;;;;;;28.77;17.13;;;;;;;0.94;59.91;95315.84;5108104;28;20397;-73
2023/03/18 04:38:50;;;;;;;32.35;17.42;;;;;;;0.91;59.86;95320.03;5106047;28;20031;-73
2023/03/18 04:41:15;;;;;;;29.48;17.35;;;;;;;0.92;59.80;95320.81;5106250;28;20026;-73
2023/03/18 04:43:42;;;;;;;29.70;17.17;;;;;;;0.94;60.22;95326.66;5089016;28;20039;-73
2023/03/18 04:46:07;;;;;;;33.05;18.08;;;;;;;0.93;60.14;95317.78;5107209;28;20072;-72
2023/03/18 04:48:33;;;;;;;36.70;18.17;;;;;;;0.94;60.07;95327.44;5107536;28;20110;-73
2023/03/18 04:50:59;;;;;;;29.02;15.15;;;;;;;0.95;59.75;95331.72;5089047;28;20051;-72
2023/03/18 04:53:25;;;;;;;30.30;15.85;;;;;;;0.95;59.62;95325.50;5105896;28;20024;-73
2023/03/18 04:55:50;;;;;;;28.48;14.85;;;;;;;0.93;59.88;95333.22;5107306;28;20096;-72
2023/03/18 04:58:16;;;;;;;30.55;15.52;;;;;;;0.94;59.51;95345.63;5106031;28;20027;-72
2023/03/18 05:00:42;;;;;;;27.65;15.27;;;;;;;0.95;59.28;95329.00;5105707;28;20020;-72
2023/03/18 05:03:08;;;;;;;26.52;15.13;;;;;;;0.98;58.85;95341.03;5105758;28;20062;-73
2023/03/18 05:05:34;;;;;;;26.25;14.23;;;;;;;1.00;59.02;95342.22;5105965;28;20514;-74
2023/03/18 05:08:00;;;;;;;25.65;15.52;;;;;;;1.01;59.04;95340.31;5107096;28;20428;-72
2023/03/18 05:10:25;;;;;;;26.50;16.38;;;;;;;1.04;59.12;95345.00;5104645;28;20046;-73
2023/03/18 05:12:51;;;;;;;24.55;14.75;;;;;;;1.04;59.27;95334.94;5105254;28;20031;-73
2023/03/18 05:15:16;;;;;;;24.27;15.60;;;;;;;1.08;59.23;95340.41;5106975;28;20474;-73
2023/03/18 05:17:41;;;;;;;29.00;16.73;;;;;;;1.11;58.95;95334.25;5103920;28;20032;-73
2023/03/18 05:20:09;;;;;;;36.15;19.00;;;;;;;1.11;59.10;95333.47;5105368;28;20047;-72
2023/03/18 05:22:35;;;;;;;35.63;19.52;;;;;;;1.11;59.35;95336.97;5105778;28;20050;-73
2023/03/18 05:25:01;;;;;;;32.55;19.40;;;;;;;1.14;59.30;95336.22;5103708;28;20114;-73
2023/03/18 05:27:27;;;;;;;44.72;20.25;;;;;;;1.07;59.23;95325.31;5105787;28;20019;-72
2023/03/18 05:29:52;;;;;;;35.08;20.00;;;;;;;1.19;59.23;95329.72;5103483;27;20055;-73
2023/03/18 05:32:18;;;;;;;37.70;20.67;;;;;;;1.21;59.23;95332.84;5102797;27;20078;-72
2023/03/18 05:34:43;;;;;;;37.17;20.77;;;;;;;1.23;59.18;95325.13;5102794;28;20081;-72
2023/03/18 05:37:10;;;;;;;37.67;21.40;;;;;;;1.28;59.09;95330.22;5086420;28;20032;-72
2023/03/18 05:39:37;;;;;;;39.75;21.40;;;;;;;1.30;59.13;95334.13;5103877;28;20031;-73
2023/03/18 05:42:03;;;;;;;37.85;21.52;;;;;;;1.31;58.98;95332.19;5104103;28;20042;-73
2023/03/18 05:44:29;;;;;;;42.83;22.48;;;;;;;1.34;59.11;95339.59;5104996;28;20028;-74
2023/03/18 05:46:54;;;;;;;38.28;23.48;;;;;;;1.41;59.43;95341.59;5103991;27;20066;-73
2023/03/18 05:49:22;;;;;;;43.55;25.55;;;;;;;1.46;59.19;95344.00;5106317;28;20043;-73
2023/03/18 05:51:48;;;;;;;44.33;25.23;;;;;;;1.44;59.50;95352.50;5104771;28;20418;-74
2023/03/18 05:54:15;;;;;;;38.58;20.83;;;;;;;1.40;59.47;95357.09;5107021;28;20024;-74
2023/03/18 05:56:42;;;;;;;39.30;18.65;;;;;;;1.38;59.56;95364.00;5105847;28;20660;-73
2023/03/18 05:59:08;;;;;;;35.03;18.45;;;;;;;1.36;59.68;95358.97;5104654;27;20024;-73
2023/03/18 06:01:35;;;;;;;41.75;18.90;;;;;;;1.30;59.77;95349.59;5104857;28;20047;-73
2023/03/18 06:04:00;;;;;;;37.83;20.27;;;;;;;1.36;59.94;95358.19;5102662;28;20024;-73
2023/03/18 06:06:26;;;;;;;43.33;20.67;;;;;;;1.24;60.44;95353.78;5101559;27;20046;-73
2023/03/18 06:08:52;;;;;;;37.65;18.35;;;;;;;1.26;60.76;95359.59;5103655;28;20076;-73
2023/03/18 06:11:18;;;;;;;39.45;21.50;;;;;;;1.23;60.79;95363.81;5104798;28;20031;-73
2023/03/18 06:13:44;;;;;;;41.92;20.05;;;;;;;1.22;61.27;95362.28;5103813;28;20040;-73
2023/03/18 06:16:10;;;;;;;36.38;19.48;;;;;;;1.28;61.50;95370.84;5103841;28;20066;-73
2023/03/18 06:18:35;;;;;;;34.05;19.40;;;;;;;1.22;61.51;95364.97;5104037;28;20067;-73
2023/03/18 06:21:00;;;;;;;35.58;18.83;;;;;;;1.25;61.79;95358.81;5105996;28;20441;-73
2023/03/18 06:23:26;;;;;;;39.67;19.95;;;;;;;1.28;61.82;95355.38;5105644;28;20024;-72
2023/03/18 06:25:51;;;;;;;37.10;19.98;;;;;;;1.38;61.87;95359.38;5104085;27;20032;-73
2023/03/18 06:28:17;;;;;;;37.03;19.17;;;;;;;1.45;61.80;95362.19;5103640;28;20023;-74
2023/03/18 06:30:43;;;;;;;33.75;18.58;;;;;;;1.54;61.84;95356.47;5104378;28;20032;-73
2023/03/18 06:33:08;;;;;;;28.42;18.20;;;;;;;1.68;61.76;95366.72;5104585;28;20050;-73
2023/03/18 06:35:34;;;;;;;32.38;18.33;;;;;;;1.79;61.12;95354.84;5103074;28;20028;-73
2023/03/18 06:38:00;;;;;;;34.35;17.60;;;;;;;1.94;61.25;95344.94;5104150;28;20043;-73
2023/03/18 06:40:25;;;;;;;38.50;19.80;;;;;;;2.16;60.52;95347.88;5104386;28;20116;-73
2023/03/18 06:42:51;;;;;;;42.80;20.20;;;;;;;2.24;60.81;95350.31;5104187;28;20040;-72
2023/03/18 06:45:16;;;;;;;39.08;20.33;;;;;;;2.33;60.64;95352.69;5104602;28;20035;-73
2023/03/18 06:47:43;;;;;;;35.88;19.83;;;;;;;2.31;60.59;95350.34;5103160;28;20549;-73
2023/03/18 06:50:09;;;;;;;33.28;18.95;;;;;;;2.30;60.72;95348.81;5105368;28;20034;-73
2023/03/18 06:52:36;;;;;;;39.03;19.70;;;;;;;2.30;61.34;95343.38;5103816;28;20023;-73
2023/03/18 06:55:02;;;;;;;38.67;20.02;;;;;;;2.24;61.11;95344.09;5102056;28;20027;-72
2023/03/18 06:57:27;;;;;;;34.88;18.45;;;;;;;2.26;61.15;95345.28;5103329;28;20024;-73
2023/03/18 06:59:53;;;;;;;39.63;20.00;;;;;;;2.33;60.85;95345.34;5103646;28;20026;-73
2023/03/18 07:02:22;;;;;;;34.97;20.10;;;;;;;2.47;60.57;95350.13;5086887;28;20110;-72
2023/03/18 07:04:48;;;;;;;38.63;20.35;;;;;;;2.57;60.12;95341.28;5103487;28;20129;-73
2023/03/18 07:07:14;;;;;;;38.20;20.83;;;;;;;2.70;59.96;95349.94;5103788;28;20030;-73
2023/03/18 07:09:39;;;;;;;38.38;23.42;;;;;;;2.77;59.42;95351.91;5103097;28;20028;-73
2023/03/18 07:12:05;;;;;;;41.55;21.73;;;;;;;2.73;59.86;95346.44;5103623;28;20058;-72
2023/03/18 07:14:31;;;;;;;35.38;19.98;;;;;;;2.76;59.74;95351.13;5104612;27;20028;-73
2023/03/18 07:16:56;;;;;;;34.55;20.75;;;;;;;2.88;59.12;95337.25;5104875;28;20039;-72
2023/03/18 07:19:22;;;;;;;38.60;20.35;;;;;;;2.99;58.98;95342.78;5103252;28;20035;-72
2023/03/18 07:21:48;;;;;;;38.53;20.35;;;;;;;3.10;58.84;95342.84;5103073;28;20531;-73
2023/03/18 07:24:15;;;;;;;30.65;17.85;;;;;;;3.20;58.54;95339.38;5103554;28;20027;-73
2023/03/18 07:26:41;;;;;;;29.95;17.10;;;;;;;3.29;58.53;95339.84;5103053;28;20112;-73
2023/03/18 07:29:06;;;;;;;27.88;16.83;;;;;;;3.36;58.13;95345.31;5105101;28;20098;-73
2023/03/18 07:31:31;;;;;;;35.58;18.17;;;;;;;3.52;58.12;95342.28;5102941;28;20417;-73
2023/03/18 07:33:57;;;;;;;33.42;18.85;;;;;;;3.40;58.63;95351.56;5104964;28;20032;-73
2023/03/18 07:36:23;;;;;;;33.97;19.85;;;;;;;3.35;59.03;95351.91;5103172;28;20059;-73
2023/03/18 07:38:48;;;;;;;34.80;19.17;;;;;;;3.48;58.60;95349.63;5105623;28;20027;-74
2023/03/18 07:41:14;;;;;;;36.65;19.95;;;;;;;3.62;58.41;95357.88;5105204;28;20032;-73
2023/03/18 07:43:39;;;;;;;34.42;19.90;;;;;;;3.72;58.31;95350.91;5090835;28;20121;-72
2023/03/18 07:46:05;;;;;;;34.42;19.75;;;;;;;3.88;57.90;95347.88;5108868;28;20027;-74
2023/03/18 07:48:32;;;;;;;26.00;16.35;;;;;;;3.96;57.20;95338.59;5107194;28;20036;-72
2023/03/18 07:50:59;;;;;;;33.35;17.25;;;;;;;4.00;56.88;95342.84;5108778;28;20028;-72
2023/03/18 07:53:25;;;;;;;28.15;17.48;;;;;;;4.20;56.85;95339.81;5106921;28;20399;-73
2023/03/18 07:55:50;;;;;;;30.63;18.27;;;;;;;4.42;56.38;95341.41;5107230;28;20035;-72
2023/03/18 07:58:16;;;;;;;29.42;17.85;;;;;;;4.65;55.64;95340.25;5090178;28;20039;-73
2023/03/18 08:00:41;;;;;;;31.15;16.52;;;;;;;4.87;55.00;95341.78;5107315;28;20103;-74
2023/03/18 08:03:08;;;;;;;27.73;16.65;;;;;;;5.03;54.08;95349.56;5108597;28;20035;-72
2023/03/18 08:05:33;;;;;;;23.58;15.38;;;;;;;5.09;53.51;95339.06;5106997;28;20045;-74
2023/03/18 08:08:01;;;;;;;24.88;15.18;;;;;;;5.06;53.63;95341.41;5107045;28;20106;-73
2023/03/18 08:10:26;;;;;;;22.73;14.98;;;;;;;5.21;53.63;95344.09;5108383;28;20023;-73
2023/03/18 08:12:51;;;;;;;23.35;15.43;;;;;;;5.32;53.73;95344.84;5108434;28;20405;-74
2023/03/18 08:15:17;;;;;;;25.42;15.98;;;;;;;5.53;53.14;95344.81;5108237;28;20106;-73
2023/03/18 08:17:42;;;;;;;29.25;16.65;;;;;;;5.71;52.27;95327.59;5108329;28;20098;-74
2023/03/18 08:20:09;;;;;;;23.05;14.88;;;;;;;6.04;51.66;95338.00;5109532;28;20452;-74
2023/03/18 08:22:34;;;;;;;23.20;15.23;;;;;;;6.27;50.75;95345.69;5108744;28;20059;-72
2023/03/18 08:25:00;;;;;;;26.27;15.23;;;;;;;6.50;50.22;95345.16;5106555;28;20111;-74
2023/03/18 08:27:25;;;;;;;26.33;15.25;;;;;;;6.73;49.92;95346.56;5107581;28;20054;-73
2023/03/18 08:29:51;;;;;;;25.40;15.23;;;;;;;7.00;49.11;95344.78;5106810;28;20474;-73
2023/03/18 08:32:16;;;;;;;23.23;15.00;;;;;;;7.14;48.34;95325.53;5105885;28;20413;-72
2023/03/18 08:34:42;;;;;;;23.55;15.48;;;;;;;7.56;47.99;95342.69;5106276;28;20417;-75
2023/03/18 08:37:08;;;;;;;28.20;16.17;;;;;;;7.93;47.40;95338.38;5105919;28;20337;-74
2023/03/18 08:39:34;;;;;;;26.52;16.23;;;;;;;8.28;46.09;95341.84;5108017;28;20070;-73
2023/03/18 08:42:03;;;;;;;32.80;17.35;;;;;;;8.47;45.94;95317.31;5107401;28;20082;-78
2023/03/18 08:44:28;;;;;;;28.42;15.75;;;;;;;8.91;45.27;95334.66;5105987;28;20204;-78
2023/03/18 08:46:53;;;;;;;20.60;14.23;;;;;;;9.20;43.38;95332.22;5106192;28;20096;-78
2023/03/18 08:49:19;;;;;;;24.17;13.45;;;;;;;9.32;42.42;95328.88;5105673;28;20114;-79
2023/03/18 08:51:45;;;;;;;19.08;13.82;;;;;;;9.51;41.56;95338.31;5089467;28;20470;-77
2023/03/18 08:54:12;;;;;;;21.40;13.90;;;;;;;9.74;41.91;95340.25;5105133;28;20023;-77
2023/03/18 08:56:37;;;;;;;23.92;14.45;;;;;;;10.05;40.89;95343.56;5106008;28;20076;-78
2023/03/18 08:59:03;;;;;;;21.13;13.85;;;;;;;10.53;40.39;95333.16;5088824;28;20027;-79
2023/03/18 09:01:29;;;;;;;23.90;15.27;;;;;;;10.97;40.04;95340.03;5088720;28;20027;-78
2023/03/18 09:03:56;;;;;;;24.00;16.67;;;;;;;11.34;39.05;95335.94;5106127;28;20076;-77
2023/03/18 09:06:22;;;;;;;35.95;18.13;;;;;;;11.49;37.88;95346.59;5089047;28;20047;-77
2023/03/18 09:08:49;;;;;;;26.48;15.45;;;;;;;11.57;37.36;95342.44;5107468;28;20059;-77
2023/03/18 09:11:15;;;;;;;24.38;15.15;;;;;;;11.74;37.53;95334.94;5106678;28;20027;-77
2023/03/18 09:13:40;;;;;;;21.25;14.15;;;;;;;12.13;37.09;95342.16;5106105;28;20047;-77
2023/03/18 09:16:07;;;;;;;21.60;12.48;;;;;;;12.41;36.19;95337.78;5088249;28;20401;-76
2023/03/18 09:18:34;;;;;;;19.30;12.68;;;;;;;12.56;34.88;95338.13;5088614;28;20112;-73
2023/03/18 09:20:59;;;;;;;19.05;12.23;;;;;;;12.68;34.14;95334.63;5105899;28;20068;-73
2023/03/18 09:23:26;;;;;;;18.10;11.15;;;;;;;12.74;34.06;95344.66;5106762;28;20024;-74
2023/03/18 09:25:53;;;;;;;19.20;12.90;;;;;;;13.10;33.42;95334.50;5107090;28;20039;-75
2023/03/18 09:28:19;;;;;;;21.13;12.73;;;;;;;13.35;33.15;95336.47;5106378;28;20138;-75
2023/03/18 09:30:44;;;;;;;18.02;10.63;;;;;;;13.32;32.35;95332.63;5105696;28;20518;-74
2023/03/18 09:33:10;;;;;;;10.77;8.32;;;;;;;13.77;30.70;95339.78;5106495;28;20012;-74
2023/03/18 09:35:36;;;;;;;8.80;6.72;;;;;;;14.13;29.82;95333.75;5105494;28;20019;-72
2023/03/18 09:38:02;;;;;;;8.95;7.35;;;;;;;14.57;28.97;95326.22;5105176;28;20032;-73
2023/03/18 09:40:34;;;;;;;12.18;7.47;;;;;;;15.01;28.42;95334.38;5106518;28;20091;-74
2023/03/18 09:43:24;;;;;;;8.48;6.90;;;;;;;15.31;28.79;95321.72;5105382;28;20065;-72
2023/03/18 09:46:18;;;;;;;8.88;6.60;;;;;;;15.51;27.41;95326.81;5104753;28;20023;-73
2023/03/18 09:49:23;;;;;;;10.27;6.95;;;;;;;15.35;27.62;95332.63;5106767;28;20510;-74
2023/03/18 09:51:52;;;;;;;7.47;5.85;;;;;;;15.60;27.79;95318.53;5104001;28;20039;-74
2023/03/18 09:54:40;;;;;;;6.72;4.93;;;;;;;16.03;26.81;95321.47;5104683;28;20039;-75
2023/03/18 09:57:13;;;;;;;6.63;4.25;;;;;;;15.98;26.65;95322.09;5088093;28;20148;-75
2023/03/18 09:59:43;;;;;;;;;;;;;;;16.08;26.51;95335.50;5105662;28;20024;-74
2023/03/18 10:02:35;;;;;;;6.78;3.67;;;;;;;16.39;26.79;95335.28;5104463;28;19939;-74
2023/03/18 10:05:26;;;;;;;6.50;3.85;;;;;;;16.50;25.98;95325.72;5087255;28;20057;-74
2023/03/18 10:07:54;;;;;;;9.25;3.70;;;;;;;16.95;26.01;95331.16;5098109;28;20040;-73
2023/03/18 10:10:27;;;;;;;4.13;3.20;;;;;;;17.27;24.76;95328.09;5104497;28;20032;-73
2023/03/18 10:13:10;;;;;;;4.60;2.67;;;;;;;17.53;23.73;95320.81;5104751;28;20092;-73
2023/03/18 10:15:41;;;;;;;4.07;3.35;;;;;;;17.72;23.52;95319.50;5104539;28;20274;-74
2023/03/18 10:18:16;;;;;;;4.35;3.00;;;;;;;17.71;23.60;95317.91;5104804;28;20081;-74
2023/03/18 10:21:07;;;;;;;5.18;3.65;;;;;;;18.15;23.40;95322.84;5105649;28;20126;-73
2023/03/18 10:23:42;;;;;;;5.20;3.75;;;;;;;18.76;22.70;95328.00;5104217;28;20038;-74
2023/03/18 10:26:26;;;;;;;5.07;3.30;;;;;;;19.25;22.12;95318.88;5104305;28;20055;-72
2023/03/18 10:29:10;;;;;;;6.60;3.45;;;;;;;19.64;21.66;95313.09;5105542;28;20514;-74
2023/03/18 10:31:39;;;;;;;6.28;3.60;;;;;;;20.10;20.04;95313.13;5105826;28;20036;-73
2023/03/18 10:34:10;;;;;;;5.85;4.07;;;;;;;19.95;20.98;95314.47;5105839;28;20020;-73
2023/03/18 10:36:48;;;;;;;6.28;3.95;;;;;;;20.08;20.72;95315.66;5103789;28;20419;-73
2023/03/18 10:39:16;;;;;;;4.53;3.00;;;;;;;20.04;20.13;95309.53;5105624;28;20024;-73
2023/03/18 10:41:43;;;;;;;4.68;3.60;;;;;;;19.74;19.73;95308.91;5103622;28;20055;-74
2023/03/18 10:44:25;;;;;;;5.78;4.00;;;;;;;19.34;19.97;95306.84;5104586;28;20023;-73
2023/03/18 10:47:00;;;;;;;4.88;3.60;;;;;;;19.04;20.12;95300.59;5103648;28;20024;-74
2023/03/18 10:49:29;;;;;;;4.47;3.50;;;;;;;18.79;20.72;95308.28;5103591;28;20045;-74
2023/03/18 10:52:17;;;;;;;8.35;5.40;;;;;;;18.09;22.18;95307.28;5085137;28;20505;-74
2023/03/18 10:54:51;;;;;;;6.55;4.35;;;;;;;17.74;23.43;95299.53;5105055;28;20052;-75
2023/03/18 10:57:18;;;;;;;7.75;4.63;;;;;;;17.38;23.82;95298.53;5104419;28;20387;-73
2023/03/18 10:59:44;;;;;;;7.15;4.68;;;;;;;17.06;24.70;95302.88;5103328;28;20023;-76
2023/03/18 11:02:16;;;;;;;5.53;4.20;;;;;;;16.62;24.94;95308.88;5086954;28;20119;-74
2023/03/18 11:05:10;;;;;;;5.95;4.22;;;;;;;16.09;25.55;95314.84;5105353;28;20019;-73
2023/03/18 11:07:36;;;;;;;;;;;;;;;15.36;26.48;95312.00;5097783;28;20066;-73
2023/03/18 11:10:15;;;;;;;5.68;4.07;;;;;;;14.80;26.93;95304.78;5086523;28;20408;-72
2023/03/18 11:12:41;;;;;;;5.32;4.22;;;;;;;14.54;27.54;95306.97;5102935;28;20023;-73
2023/03/18 11:15:10;;;;;;;5.68;4.07;;;;;;;14.29;27.82;95303.13;5086605;28;20114;-74
2023/03/18 11:17:37;;;;;;;7.22;4.30;;;;;;;14.11;28.20;95310.53;5085736;28;20073;-76
2023/03/18 11:20:18;;;;;;;9.40;4.45;;;;;;;13.94;27.72;95304.44;5103218;28;20119;-74
2023/03/18 11:22:44;;;;;;;5.35;3.95;;;;;;;13.90;27.75;95303.78;5104626;28;20464;-75
2023/03/18 11:25:13;;;;;;;6.40;4.47;;;;;;;14.25;27.04;95290.66;5103250;28;20039;-73
2023/03/18 11:27:40;;;;;;;5.93;3.88;;;;;;;13.94;26.91;95294.16;5104916;28;20498;-74
2023/03/18 11:30:19;;;;;;;6.82;4.53;;;;;;;14.59;25.98;95293.31;5103208;28;20028;-75